createdAt,value
2018-02-16T00:00:59.233Z,5.46
2018-02-16T00:02:13.983Z,5.44
2018-02-16T00:03:28.261Z,5.44
2018-02-16T00:04:42.197Z,5.43
2018-02-16T00:05:56.757Z,5.45
2018-02-16T00:07:11.293Z,5.46
2018-02-16T00:08:25.835Z,5.48
2018-02-16T00:09:39.884Z,5.48
2018-02-16T00:10:54.401Z,5.51
2018-02-16T00:12:08.962Z,5.51
2018-02-16T00:13:23.014Z,5.52
2018-02-16T00:14:37.222Z,5.52
2018-02-16T00:15:51.681Z,5.53
2018-02-16T00:17:05.471Z,5.54
2018-02-16T00:18:19.639Z,5.52
2018-02-16T00:19:34.101Z,5.5
2018-02-16T00:20:48.056Z,5.5
2018-02-16T00:22:02.261Z,5.48
2018-02-16T00:23:17.174Z,5.46
2018-02-16T00:24:31.328Z,5.43
2018-02-16T00:25:45.275Z,5.42
2018-02-16T00:26:59.213Z,5.42
2018-02-16T00:28:12.925Z,5.43
2018-02-16T00:29:27.139Z,5.41
2018-02-16T00:30:41.986Z,5.41
2018-02-16T00:31:55.941Z,5.4
2018-02-16T00:33:09.612Z,5.39
2018-02-16T00:34:23.584Z,5.39
2018-02-16T00:35:37.840Z,5.4
2018-02-16T00:36:51.486Z,5.42
2018-02-16T00:38:05.697Z,5.43
2018-02-16T00:39:20.375Z,5.45
2018-02-16T00:40:35.090Z,5.46
2018-02-16T00:41:49.038Z,5.48
2018-02-16T00:43:03.049Z,5.51
2018-02-16T00:44:16.774Z,5.52
2018-02-16T00:45:30.968Z,5.55
2018-02-16T00:46:45.066Z,5.54
2018-02-16T00:47:59.009Z,5.51
2018-02-16T00:49:13.073Z,5.49
2018-02-16T00:50:27.552Z,5.47
2018-02-16T00:51:41.989Z,5.48
2018-02-16T00:52:55.683Z,5.48
2018-02-16T00:54:09.387Z,5.48
2018-02-16T00:55:23.584Z,5.5
2018-02-16T00:56:38.267Z,5.51
2018-02-16T00:57:51.747Z,5.53
2018-02-16T00:59:05.960Z,5.55
2018-02-16T01:00:20.953Z,5.55
2018-02-16T01:01:35.217Z,5.52
2018-02-16T01:02:49.427Z,5.52
2018-02-16T01:04:03.484Z,5.51
2018-02-16T01:05:17.689Z,5.5
2018-02-16T01:06:32.131Z,5.52
2018-02-16T01:07:45.803Z,5.51
2018-02-16T01:08:59.761Z,5.49
2018-02-16T01:10:13.681Z,5.45
2018-02-16T01:11:28.170Z,5.41
2018-02-16T01:12:43.148Z,5.4
2018-02-16T01:13:56.867Z,5.39
2018-02-16T01:15:11.581Z,5.37
2018-02-16T01:16:26.288Z,5.33
2018-02-16T01:17:39.977Z,5.3
2018-02-16T01:18:54.161Z,5.3
2018-02-16T01:20:08.613Z,5.32
2018-02-16T01:21:23.057Z,5.34
2018-02-16T01:22:37.459Z,5.39
2018-02-16T01:23:51.877Z,5.4
2018-02-16T01:25:06.174Z,5.43
2018-02-16T01:26:20.343Z,5.46
2018-02-16T01:27:34.533Z,5.48
2018-02-16T01:28:49.019Z,5.49
2018-02-16T01:30:02.728Z,5.5
2018-02-16T01:31:16.673Z,5.49
2018-02-16T01:32:31.097Z,5.48
2018-02-16T01:33:45.508Z,5.49
2018-02-16T01:34:59.452Z,5.46
2018-02-16T01:36:13.675Z,5.42
2018-02-16T01:37:28.233Z,5.41
2018-02-16T01:38:42.424Z,5.38
2018-02-16T01:39:57.078Z,5.33
2018-02-16T01:41:11.504Z,5.3
2018-02-16T01:42:25.756Z,5.29
2018-02-16T01:43:39.917Z,5.29
2018-02-16T01:44:53.854Z,5.28
2018-02-16T01:46:07.824Z,5.28
2018-02-16T01:47:22.500Z,5.27
2018-02-16T01:48:37.177Z,5.28
2018-02-16T01:49:51.608Z,5.28
2018-02-16T01:51:06.038Z,5.27
2018-02-16T01:52:20.996Z,5.29
2018-02-16T01:53:34.912Z,5.31
2018-02-16T01:54:49.150Z,5.32
2018-02-16T01:56:03.367Z,5.32
2018-02-16T01:57:17.834Z,5.31
2018-02-16T01:58:32.277Z,5.31
2018-02-16T01:59:46.709Z,5.29
2018-02-16T02:01:00.374Z,5.26
2018-02-16T02:02:14.572Z,5.24
2018-02-16T02:03:29.227Z,5.23
2018-02-16T02:04:42.639Z,5.19
2018-02-16T02:05:57.111Z,5.17
2018-02-16T02:07:11.278Z,5.15
2018-02-16T02:08:25.518Z,5.16
2018-02-16T02:09:39.934Z,5.16
2018-02-16T02:10:54.187Z,5.17
2018-02-16T02:12:08.625Z,5.18
2018-02-16T02:13:22.775Z,5.19
2018-02-16T02:14:37.231Z,5.2
2018-02-16T02:15:51.139Z,5.21
2018-02-16T02:17:05.573Z,5.21
2018-02-16T02:18:19.506Z,5.23
2018-02-16T02:19:33.692Z,5.22
2018-02-16T02:20:47.344Z,5.23
2018-02-16T02:22:01.809Z,5.24
2018-02-16T02:23:16.529Z,5.25
2018-02-16T02:24:30.962Z,5.24
2018-02-16T02:25:44.899Z,5.26
2018-02-16T02:26:58.822Z,5.27
2018-02-16T02:28:12.767Z,5.28
2018-02-16T02:29:26.433Z,5.28
2018-02-16T02:30:40.820Z,5.29
2018-02-16T02:31:54.797Z,5.29
2018-02-16T02:33:09.508Z,5.27
2018-02-16T02:34:23.721Z,5.26
2018-02-16T02:35:38.139Z,5.24
2018-02-16T02:36:52.600Z,5.23
2018-02-16T02:38:06.797Z,5.22
2018-02-16T02:39:20.493Z,5.19
2018-02-16T02:40:34.680Z,5.19
2018-02-16T02:41:49.440Z,5.18
2018-02-16T02:43:04.166Z,5.17
2018-02-16T02:44:19.259Z,5.16
2018-02-16T02:45:32.984Z,5.16
2018-02-16T02:46:47.936Z,5.15
2018-02-16T02:48:02.351Z,5.14
2018-02-16T02:49:16.556Z,5.13
2018-02-16T02:50:30.752Z,5.13
2018-02-16T02:51:44.661Z,5.14
2018-02-16T02:52:58.821Z,5.14
2018-02-16T02:54:13.525Z,5.15
2018-02-16T02:55:27.009Z,5.15
2018-02-16T02:56:40.939Z,5.15
2018-02-16T02:57:55.618Z,5.18
2018-02-16T02:59:09.274Z,5.19
2018-02-16T03:00:23.680Z,5.21
2018-02-16T03:01:37.641Z,5.24
2018-02-16T03:02:51.811Z,5.24
2018-02-16T03:04:05.747Z,5.27
2018-02-16T03:05:19.949Z,5.27
2018-02-16T03:06:34.933Z,5.29
2018-02-16T03:07:49.331Z,5.28
2018-02-16T03:09:03.780Z,5.25
2018-02-16T03:10:18.206Z,5.25
2018-02-16T03:11:32.916Z,5.23
2018-02-16T03:12:47.634Z,5.23
2018-02-16T03:14:02.082Z,5.22
2018-02-16T03:15:16.022Z,5.19
2018-02-16T03:16:30.188Z,5.13
2018-02-16T03:17:44.445Z,5.07
2018-02-16T03:18:58.858Z,5.01
2018-02-16T03:20:12.771Z,4.98
2018-02-16T03:21:26.706Z,4.95
2018-02-16T03:22:41.385Z,4.93
2018-02-16T03:23:56.066Z,4.92
2018-02-16T03:25:09.988Z,4.91
2018-02-16T03:26:24.420Z,4.9
2018-02-16T03:27:37.841Z,4.9
2018-02-16T03:28:52.299Z,4.89
2018-02-16T03:30:06.472Z,4.89
2018-02-16T03:31:21.208Z,4.89
2018-02-16T03:32:35.168Z,4.88
2018-02-16T03:33:49.591Z,4.85
2018-02-16T03:35:04.066Z,4.81
2018-02-16T03:36:18.754Z,4.77
2018-02-16T03:37:33.174Z,4.74
2018-02-16T03:38:47.846Z,4.75
2018-02-16T03:40:02.048Z,4.74
2018-02-16T03:41:15.451Z,4.75
2018-02-16T03:42:29.613Z,4.73
2018-02-16T03:43:44.047Z,4.7
2018-02-16T03:44:58.185Z,4.62
2018-02-16T03:46:12.622Z,4.55
2018-02-16T03:47:27.054Z,4.48
2018-02-16T03:48:41.475Z,4.41
2018-02-16T03:49:55.375Z,4.34
2018-02-16T03:51:09.933Z,4.31
2018-02-16T03:52:23.931Z,4.3
2018-02-16T03:53:38.078Z,4.28
2018-02-16T03:54:52.548Z,4.28
2018-02-16T03:56:06.210Z,4.28
2018-02-16T03:57:20.416Z,4.3
2018-02-16T03:58:34.617Z,4.31
2018-02-16T03:59:48.798Z,4.32
2018-02-16T04:01:03.236Z,4.35
2018-02-16T04:02:17.152Z,4.39
2018-02-16T04:03:31.078Z,4.41
2018-02-16T04:04:44.992Z,4.44
2018-02-16T04:05:59.424Z,4.48
2018-02-16T04:07:13.575Z,4.51
2018-02-16T04:08:27.737Z,4.54
2018-02-16T04:09:42.156Z,4.57
2018-02-16T04:10:57.148Z,4.6
2018-02-16T04:12:11.836Z,4.61
2018-02-16T04:13:25.510Z,4.63
2018-02-16T04:14:39.811Z,4.64
2018-02-16T04:15:53.722Z,4.67
2018-02-16T04:17:08.124Z,4.68
2018-02-16T04:18:22.324Z,4.65
2018-02-16T04:19:36.513Z,4.66
2018-02-16T04:20:50.749Z,4.59
2018-02-16T04:22:04.958Z,4.51
2018-02-16T04:23:18.877Z,4.46
2018-02-16T04:24:32.876Z,4.42
2018-02-16T04:25:46.795Z,4.39
2018-02-16T04:27:00.969Z,4.39
2018-02-16T04:28:15.135Z,4.37
2018-02-16T04:29:29.857Z,4.37
2018-02-16T04:30:44.275Z,4.33
2018-02-16T04:31:58.491Z,4.32
2018-02-16T04:33:13.010Z,4.31
2018-02-16T04:34:27.533Z,4.31
2018-02-16T04:35:41.740Z,4.3
2018-02-16T04:36:56.230Z,4.28
2018-02-16T04:38:10.755Z,4.27
2018-02-16T04:39:25.263Z,4.23
2018-02-16T04:40:39.499Z,4.17
2018-02-16T04:41:53.147Z,4.12
2018-02-16T04:43:06.855Z,4.08
2018-02-16T04:44:21.832Z,4.07
2018-02-16T04:45:36.030Z,4.07
2018-02-16T04:46:49.725Z,4.04
2018-02-16T04:48:04.169Z,4.03
2018-02-16T04:49:18.626Z,3.99
2018-02-16T04:50:33.113Z,3.97
2018-02-16T04:51:47.076Z,3.94
2018-02-16T04:53:01.522Z,3.94
2018-02-16T04:54:15.214Z,3.93
2018-02-16T04:55:29.752Z,3.93
2018-02-16T04:56:43.927Z,3.92
2018-02-16T04:57:58.028Z,3.89
2018-02-16T04:59:12.212Z,3.85
2018-02-16T05:00:26.477Z,3.84
2018-02-16T05:01:40.978Z,3.83
2018-02-16T05:02:54.921Z,3.82
2018-02-16T05:04:09.119Z,3.84
2018-02-16T05:05:23.854Z,3.84
2018-02-16T05:06:38.387Z,3.85
2018-02-16T05:07:52.809Z,3.87
2018-02-16T05:09:07.054Z,3.9
2018-02-16T05:10:21.295Z,3.89
2018-02-16T05:11:36.042Z,3.87
2018-02-16T05:12:50.546Z,3.86
2018-02-16T05:14:05.419Z,3.88
2018-02-16T05:15:19.405Z,3.87
2018-02-16T05:16:33.971Z,3.87
2018-02-16T05:17:48.226Z,3.9
2018-02-16T05:19:02.811Z,3.93
2018-02-16T05:20:17.068Z,3.95
2018-02-16T05:21:31.000Z,3.97
2018-02-16T05:22:44.975Z,3.97
2018-02-16T05:23:59.702Z,4
2018-02-16T05:25:14.475Z,4.03
2018-02-16T05:26:28.927Z,4.06
2018-02-16T05:27:42.913Z,4.08
2018-02-16T05:28:57.962Z,4.14
2018-02-16T05:30:12.149Z,4.18
2018-02-16T05:31:26.732Z,4.22
2018-02-16T05:32:41.665Z,4.22
2018-02-16T05:33:55.589Z,4.23
2018-02-16T05:35:10.302Z,4.21
2018-02-16T05:36:24.506Z,4.2
2018-02-16T05:37:38.750Z,4.2
2018-02-16T05:38:52.975Z,4.18
2018-02-16T05:40:07.154Z,4.18
2018-02-16T05:41:20.853Z,4.16
2018-02-16T05:42:34.816Z,4.15
2018-02-16T05:43:49.504Z,4.13
2018-02-16T05:45:04.199Z,4.14
2018-02-16T05:46:17.889Z,4.15
2018-02-16T05:47:31.601Z,4.17
2018-02-16T05:48:45.800Z,4.18
2018-02-16T05:50:00.042Z,4.19
2018-02-16T05:51:14.512Z,4.19
2018-02-16T05:52:29.008Z,4.2
2018-02-16T05:53:43.195Z,4.19
2018-02-16T05:54:57.663Z,4.17
2018-02-16T05:56:11.940Z,4.15
2018-02-16T05:57:26.331Z,4.15
2018-02-16T05:58:40.322Z,4.16
2018-02-16T05:59:54.824Z,4.18
2018-02-16T06:01:09.555Z,4.19
2018-02-16T06:02:23.487Z,4.18
2018-02-16T06:03:37.683Z,4.17
2018-02-16T06:04:51.767Z,4.15
2018-02-16T06:06:06.264Z,4.16
2018-02-16T06:07:20.493Z,4.17
2018-02-16T06:08:34.192Z,4.14
2018-02-16T06:09:48.477Z,4.1
2018-02-16T06:11:02.702Z,4.06
2018-02-16T06:12:16.742Z,4.03
2018-02-16T06:13:30.953Z,4.02
2018-02-16T06:14:45.426Z,4.03
2018-02-16T06:16:00.198Z,4.05
2018-02-16T06:17:14.730Z,4.06
2018-02-16T06:18:28.987Z,4.09
2018-02-16T06:19:43.272Z,4.1
2018-02-16T06:20:56.754Z,4.1
2018-02-16T06:22:11.485Z,4.11
2018-02-16T06:23:26.316Z,4.12
2018-02-16T06:24:40.776Z,4.11
2018-02-16T06:25:55.308Z,4.09
2018-02-16T06:27:09.594Z,4.08
2018-02-16T06:28:24.629Z,4.04
2018-02-16T06:29:38.935Z,4.02
2018-02-16T06:30:53.697Z,4.03
2018-02-16T06:32:08.235Z,4.04
2018-02-16T06:33:22.945Z,4.03
2018-02-16T06:34:37.197Z,4.03
2018-02-16T06:35:51.666Z,4.03
2018-02-16T06:37:05.952Z,4.01
2018-02-16T06:38:20.764Z,4.01
2018-02-16T06:39:34.734Z,4.02
2018-02-16T06:40:48.543Z,4
2018-02-16T06:42:03.419Z,4.06
2018-02-16T06:43:17.943Z,4.17
2018-02-16T06:44:31.963Z,4.24
2018-02-16T06:45:46.470Z,4.28
2018-02-16T06:47:00.584Z,4.3
2018-02-16T06:48:14.786Z,4.27
2018-02-16T06:49:29.312Z,4.29
2018-02-16T06:50:43.291Z,4.28
2018-02-16T06:51:57.846Z,4.3
2018-02-16T06:53:11.836Z,4.31
2018-02-16T06:54:26.332Z,4.33
2018-02-16T06:55:41.152Z,4.31
2018-02-16T06:56:55.678Z,4.34
2018-02-16T06:58:10.320Z,4.36
2018-02-16T06:59:24.313Z,4.38
2018-02-16T07:00:38.267Z,4.39
2018-02-16T07:01:52.254Z,4.41
2018-02-16T07:03:06.807Z,4.45
2018-02-16T07:04:21.273Z,4.45
2018-02-16T07:05:35.297Z,4.46
2018-02-16T07:06:49.606Z,4.46
2018-02-16T07:08:04.447Z,4.48
2018-02-16T07:09:18.719Z,4.49
2018-02-16T07:10:32.514Z,4.5
2018-02-16T07:11:47.130Z,4.52
2018-02-16T07:13:01.432Z,4.52
2018-02-16T07:14:15.959Z,4.5
2018-02-16T07:15:29.722Z,4.47
2018-02-16T07:16:43.983Z,4.43
2018-02-16T07:17:58.551Z,4.4
2018-02-16T07:19:13.146Z,4.43
2018-02-16T07:20:27.868Z,4.44
2018-02-16T07:21:41.670Z,4.49
2018-02-16T07:22:55.985Z,4.51
2018-02-16T07:24:10.736Z,4.55
2018-02-16T07:25:25.251Z,4.56
2018-02-16T07:26:39.747Z,4.54
2018-02-16T07:27:54.529Z,4.55
2018-02-16T07:29:09.568Z,4.58
2018-02-16T07:30:24.033Z,4.58
2018-02-16T07:31:38.531Z,4.59
2018-02-16T07:32:53.068Z,4.58
2018-02-16T07:34:07.320Z,4.58
2018-02-16T07:35:21.041Z,4.59
2018-02-16T07:36:34.267Z,4.59
2018-02-16T07:37:49.147Z,4.6
2018-02-16T07:39:03.960Z,4.6
2018-02-16T07:40:18.730Z,4.6
2018-02-16T07:41:47.619Z,4.6
2018-02-16T07:43:02.143Z,4.59
2018-02-16T07:44:16.843Z,4.6
2018-02-16T07:45:30.850Z,4.59
2018-02-16T07:46:45.047Z,4.61
2018-02-16T07:47:59.400Z,4.62
2018-02-16T07:49:13.681Z,4.62
2018-02-16T07:50:28.581Z,4.63
2018-02-16T07:51:42.583Z,4.67
2018-02-16T07:52:57.102Z,4.72
2018-02-16T07:54:11.327Z,4.74
2018-02-16T07:55:25.523Z,4.81
2018-02-16T07:56:40.175Z,4.85
2018-02-16T07:57:54.821Z,4.9
2018-02-16T07:59:08.868Z,4.93
2018-02-16T08:00:23.221Z,4.93
2018-02-16T08:01:37.668Z,4.93
2018-02-16T08:02:52.454Z,4.92
2018-02-16T08:04:06.976Z,4.89
2018-02-16T08:05:21.486Z,4.87
2018-02-16T08:06:50.444Z,4.9
2018-02-16T08:08:04.519Z,4.91
2018-02-16T08:09:19.402Z,4.91
2018-02-16T08:10:34.022Z,4.86
2018-02-16T08:11:47.549Z,4.9
2018-02-16T08:13:01.541Z,4.88
2018-02-16T08:14:15.518Z,4.82
2018-02-16T08:15:30.396Z,4.82
2018-02-16T08:16:45.692Z,4.86
2018-02-16T08:17:59.951Z,4.86
2018-02-16T08:19:14.545Z,4.9
2018-02-16T08:20:28.657Z,4.92
2018-02-16T08:21:43.141Z,4.95
2018-02-16T08:22:57.404Z,4.98
2018-02-16T08:24:11.449Z,5
2018-02-16T08:25:25.448Z,5.03
2018-02-16T08:29:22.249Z,5.21
2018-02-16T08:34:06.592Z,5.41
2018-02-16T08:35:20.322Z,5.4
2018-02-16T08:36:34.366Z,5.39
2018-02-16T08:37:48.899Z,5.36
2018-02-16T08:39:03.789Z,5.33
2018-02-16T08:40:18.312Z,5.32
2018-02-16T08:41:32.342Z,5.33
2018-02-16T08:42:46.902Z,5.32
2018-02-16T08:44:01.981Z,5.34
2018-02-16T08:45:16.483Z,5.37
2018-02-16T08:46:30.780Z,5.4
2018-02-16T08:47:44.719Z,5.47
2018-02-16T08:48:59.177Z,5.51
2018-02-16T08:50:14.099Z,5.59
2018-02-16T08:51:28.204Z,5.63
2018-02-16T08:52:42.719Z,5.67
2018-02-16T08:53:57.223Z,5.7
2018-02-16T08:55:11.636Z,5.72
2018-02-16T08:56:25.616Z,5.73
2018-02-16T08:57:39.887Z,5.76
2018-02-16T08:58:54.138Z,5.77
2018-02-16T09:00:08.100Z,5.82
2018-02-16T09:01:22.912Z,5.86
2018-02-16T09:02:37.706Z,5.89
2018-02-16T09:03:52.167Z,5.95
2018-02-16T09:05:05.629Z,5.99
2018-02-16T09:06:19.662Z,5.98
2018-02-16T09:07:33.856Z,6.02
2018-02-16T09:08:47.635Z,6.05
2018-02-16T09:10:01.730Z,6.06
2018-02-16T09:11:16.023Z,6.08
2018-02-16T09:12:30.095Z,6.05
2018-02-16T09:13:44.632Z,6.04
2018-02-16T09:14:59.241Z,6.07
2018-02-16T09:16:13.276Z,6.1
2018-02-16T09:17:28.066Z,6.12
2018-02-16T09:18:41.836Z,6.17
2018-02-16T09:19:56.376Z,6.23
2018-02-16T09:21:10.728Z,6.28
2018-02-16T09:22:25.139Z,6.29
2018-02-16T09:23:39.737Z,6.31
2018-02-16T09:24:53.701Z,6.33
2018-02-16T09:26:07.970Z,6.31
2018-02-16T09:27:22.535Z,6.29
2018-02-16T09:28:37.428Z,6.29
2018-02-16T09:29:52.166Z,6.26
2018-02-16T09:31:05.902Z,6.25
2018-02-16T09:32:20.731Z,6.28
2018-02-16T09:33:35.214Z,6.3
2018-02-16T09:34:49.449Z,6.37
2018-02-16T09:36:03.903Z,6.39
2018-02-16T09:37:17.861Z,6.39
2018-02-16T09:38:31.831Z,6.38
2018-02-16T09:40:00.669Z,6.35
2018-02-16T09:41:15.196Z,6.37
2018-02-16T09:42:29.958Z,6.42
2018-02-16T09:43:44.449Z,6.48
2018-02-16T09:44:58.931Z,6.52
2018-02-16T09:46:12.701Z,6.62
2018-02-16T09:47:26.671Z,6.66
2018-02-16T09:48:40.950Z,6.72
2018-02-16T09:49:55.474Z,6.79
2018-02-16T09:51:09.518Z,6.85
2018-02-16T09:52:24.297Z,6.88
2018-02-16T09:53:39.040Z,6.9
2018-02-16T09:54:52.761Z,6.9
2018-02-16T09:56:07.920Z,6.93
2018-02-16T09:57:22.372Z,6.92
2018-02-16T09:58:36.991Z,6.9
2018-02-16T09:59:51.550Z,6.85
2018-02-16T10:01:06.350Z,6.79
2018-02-16T10:02:20.609Z,6.75
2018-02-16T10:03:35.191Z,6.72
2018-02-16T10:04:49.384Z,6.7
2018-02-16T10:06:03.745Z,6.69
2018-02-16T10:07:18.308Z,6.66
2018-02-16T10:08:32.908Z,6.68
2018-02-16T10:09:46.858Z,6.72
2018-02-16T10:11:00.578Z,6.74
2018-02-16T10:12:15.109Z,6.8
2018-02-16T10:13:29.019Z,6.88
2018-02-16T10:14:43.301Z,6.96
2018-02-16T10:15:58.147Z,7.06
2018-02-16T10:17:12.960Z,7.1
2018-02-16T10:18:27.234Z,7.09
2018-02-16T10:19:41.979Z,7.1
2018-02-16T10:20:56.295Z,7.15
2018-02-16T10:22:10.080Z,7.16
2018-02-16T10:23:24.922Z,7.21
2018-02-16T10:24:39.274Z,7.25
2018-02-16T10:25:53.567Z,7.21
2018-02-16T10:27:07.876Z,7.17
2018-02-16T10:28:22.285Z,7.16
2018-02-16T10:29:36.118Z,7.15
2018-02-16T10:30:50.658Z,7.18
2018-02-16T10:32:04.376Z,7.19
2018-02-16T10:33:18.430Z,7.23
2018-02-16T10:34:32.721Z,7.26
2018-02-16T10:35:46.464Z,7.32
2018-02-16T10:37:00.789Z,7.37
2018-02-16T10:38:15.596Z,7.47
2018-02-16T10:39:29.687Z,7.57
2018-02-16T10:40:44.028Z,7.63
2018-02-16T10:41:58.612Z,7.7
2018-02-16T10:43:13.435Z,7.74
2018-02-16T10:44:27.795Z,7.77
2018-02-16T10:45:41.866Z,7.78
2018-02-16T10:46:56.402Z,7.79
2018-02-16T10:48:10.649Z,7.77
2018-02-16T10:49:24.639Z,7.76
2018-02-16T10:50:38.883Z,7.75
2018-02-16T10:51:53.098Z,7.75
2018-02-16T10:53:07.329Z,7.78
2018-02-16T10:54:35.953Z,7.75
2018-02-16T10:55:50.025Z,7.76
2018-02-16T10:57:04.536Z,7.76
2018-02-16T10:58:18.573Z,7.75
2018-02-16T10:59:33.172Z,7.79
2018-02-16T11:00:47.636Z,7.84
2018-02-16T11:02:02.322Z,7.89
2018-02-16T11:03:16.902Z,7.98
2018-02-16T11:04:31.369Z,8.06
2018-02-16T11:05:45.348Z,8.11
2018-02-16T11:07:00.175Z,8.17
2018-02-16T11:08:14.734Z,8.2
2018-02-16T11:09:43.638Z,8.23
2018-02-16T11:10:57.884Z,8.33
2018-02-16T11:12:12.212Z,8.42
2018-02-16T11:13:26.466Z,8.52
2018-02-16T11:14:41.032Z,8.59
2018-02-16T11:15:55.826Z,8.64
2018-02-16T11:17:09.546Z,8.71
2018-02-16T11:18:23.849Z,8.73
2018-02-16T11:19:38.201Z,8.79
2018-02-16T11:20:52.459Z,8.84
2018-02-16T11:22:06.983Z,8.91
2018-02-16T11:23:21.318Z,8.96
2018-02-16T11:24:36.145Z,9.01
2018-02-16T11:25:50.916Z,9
2018-02-16T11:27:04.979Z,9
2018-02-16T11:28:19.498Z,9
2018-02-16T11:29:33.744Z,9.01
2018-02-16T11:30:47.803Z,8.95
2018-02-16T11:32:01.638Z,8.93
2018-02-16T11:33:15.399Z,8.87
2018-02-16T11:34:30.031Z,8.8
2018-02-16T11:35:44.101Z,8.76
2018-02-16T11:36:58.121Z,8.72
2018-02-16T11:38:12.375Z,8.75
2018-02-16T11:39:26.318Z,8.73
2018-02-16T11:40:40.428Z,8.72
2018-02-16T11:41:54.446Z,8.72
2018-02-16T11:43:09.165Z,8.74
2018-02-16T11:44:23.198Z,8.74
2018-02-16T11:45:37.747Z,8.81
2018-02-16T11:46:52.286Z,8.89
2018-02-16T11:48:06.286Z,8.95
2018-02-16T11:49:20.705Z,8.95
2018-02-16T11:50:34.984Z,8.95
2018-02-16T11:51:48.880Z,8.96
2018-02-16T11:53:03.527Z,8.92
2018-02-16T11:54:17.321Z,8.94
2018-02-16T11:55:31.074Z,8.97
2018-02-16T11:56:45.924Z,9.01
2018-02-16T11:58:00.244Z,9.04
2018-02-16T11:59:14.501Z,9.06
2018-02-16T12:00:28.861Z,9.03
2018-02-16T12:01:42.621Z,9.02
2018-02-16T12:02:56.860Z,9
2018-02-16T12:04:10.665Z,9
2018-02-16T12:05:25.465Z,8.97
2018-02-16T12:06:39.986Z,8.96
2018-02-16T12:07:54.961Z,8.93
2018-02-16T12:09:09.258Z,8.94
2018-02-16T12:10:23.596Z,8.95
2018-02-16T12:11:37.755Z,8.94
2018-02-16T12:12:52.306Z,8.96
2018-02-16T12:14:06.626Z,8.96
2018-02-16T12:15:21.475Z,8.95
2018-02-16T12:16:36.063Z,8.94
2018-02-16T12:17:50.626Z,8.91
2018-02-16T12:19:05.828Z,8.88
2018-02-16T12:20:19.652Z,8.8
2018-02-16T12:21:34.031Z,8.8
2018-02-16T12:22:48.850Z,8.79
2018-02-16T12:24:03.208Z,8.77
2018-02-16T12:25:17.786Z,8.74
2018-02-16T12:26:32.085Z,8.74
2018-02-16T12:27:46.216Z,8.79
2018-02-16T12:29:00.706Z,8.84
2018-02-16T12:30:15.500Z,8.84
2018-02-16T12:31:29.786Z,8.81
2018-02-16T12:32:44.590Z,8.83
2018-02-16T12:33:59.175Z,8.86
2018-02-16T12:35:13.229Z,8.92
2018-02-16T12:36:27.245Z,8.98
2018-02-16T12:37:41.564Z,9.02
2018-02-16T12:38:56.105Z,9.08
2018-02-16T12:40:10.392Z,9.12
2018-02-16T12:41:24.740Z,9.15
2018-02-16T12:42:39.039Z,9.18
2018-02-16T12:43:53.345Z,9.15
2018-02-16T12:45:07.985Z,9.11
2018-02-16T12:46:22.644Z,9.07
2018-02-16T12:47:37.485Z,9
2018-02-16T12:48:51.840Z,8.99
2018-02-16T12:50:06.120Z,8.96
2018-02-16T12:51:20.736Z,8.94
2018-02-16T12:52:35.097Z,8.95
2018-02-16T12:53:49.342Z,8.99
2018-02-16T12:55:03.624Z,9.01
2018-02-16T12:56:17.601Z,8.99
2018-02-16T12:57:31.924Z,8.99
2018-02-16T12:58:45.662Z,9
2018-02-16T13:00:00.251Z,9
2018-02-16T13:01:14.310Z,9.04
2018-02-16T13:02:28.995Z,9.07
2018-02-16T13:03:43.301Z,9.13
2018-02-16T13:04:58.345Z,9.19
2018-02-16T13:06:12.684Z,9.23
2018-02-16T13:07:27.003Z,9.28
2018-02-16T13:08:41.895Z,9.33
2018-02-16T13:09:56.258Z,9.39
2018-02-16T13:11:10.307Z,9.45
2018-02-16T13:12:24.647Z,9.52
2018-02-16T13:13:39.479Z,9.58
2018-02-16T13:14:53.329Z,9.61
2018-02-16T13:16:07.736Z,9.64
2018-02-16T13:17:22.057Z,9.69
2018-02-16T13:18:36.140Z,9.73
2018-02-16T13:19:50.178Z,9.77
2018-02-16T13:21:04.973Z,9.81
2018-02-16T13:22:19.337Z,9.8
2018-02-16T13:23:33.169Z,9.79
2018-02-16T13:24:47.650Z,9.8
2018-02-16T13:26:02.038Z,9.83
2018-02-16T13:27:16.123Z,9.83
2018-02-16T13:28:30.727Z,9.86
2018-02-16T13:29:45.415Z,9.86
2018-02-16T13:30:59.975Z,9.87
2018-02-16T13:32:14.369Z,9.88
2018-02-16T13:33:28.919Z,9.89
2018-02-16T13:34:43.489Z,9.92
2018-02-16T13:35:58.495Z,9.95
2018-02-16T13:37:13.112Z,9.97
2018-02-16T13:38:27.831Z,10.01
2018-02-16T13:39:42.038Z,10.05
2018-02-16T13:40:56.604Z,10.08
2018-02-16T13:42:10.752Z,10.1
2018-02-16T13:43:25.111Z,10.12
2018-02-16T13:44:39.749Z,10.13
2018-02-16T13:45:54.317Z,10.11
2018-02-16T13:47:08.550Z,10.1
2018-02-16T13:48:23.321Z,10.07
2018-02-16T13:49:38.114Z,10.09
2018-02-16T13:50:53.012Z,10.09
2018-02-16T13:52:07.350Z,10.06
2018-02-16T13:53:21.942Z,10.04
2018-02-16T13:54:36.526Z,10.01
2018-02-16T13:55:50.321Z,10.01
2018-02-16T13:57:04.713Z,10.01
2018-02-16T13:58:18.560Z,10.01
2018-02-16T13:59:33.013Z,10.01
2018-02-16T14:00:47.546Z,10.01
2018-02-16T14:02:02.511Z,10.04
2018-02-16T14:03:16.265Z,10.12
2018-02-16T14:04:31.077Z,10.23
2018-02-16T14:05:45.655Z,10.29
2018-02-16T14:07:00.808Z,10.35
2018-02-16T14:08:14.810Z,10.41
2018-02-16T14:09:29.509Z,10.45
2018-02-16T14:10:44.426Z,10.47
2018-02-16T14:11:58.839Z,10.49
2018-02-16T14:13:13.507Z,10.5
2018-02-16T14:14:28.695Z,10.53
2018-02-16T14:15:43.414Z,10.56
2018-02-16T14:16:57.984Z,10.62
2018-02-16T14:18:12.322Z,10.68
2018-02-16T14:19:27.243Z,10.73
2018-02-16T14:20:41.896Z,10.78
2018-02-16T14:21:56.369Z,10.85
2018-02-16T14:23:10.936Z,10.88
2018-02-16T14:24:25.074Z,10.88
2018-02-16T14:25:39.427Z,10.91
2018-02-16T14:26:53.605Z,10.92
2018-02-16T14:28:08.309Z,10.9
2018-02-16T14:29:22.207Z,10.92
2018-02-16T14:30:36.656Z,10.93
2018-02-16T14:31:51.351Z,10.96
2018-02-16T14:33:05.782Z,10.97
2018-02-16T14:34:20.416Z,10.96
2018-02-16T14:35:34.946Z,10.92
2018-02-16T14:36:49.485Z,10.89
2018-02-16T14:38:04.098Z,10.87
2018-02-16T14:39:18.496Z,10.89
2018-02-16T14:40:33.072Z,10.93
2018-02-16T14:41:47.805Z,10.97
2018-02-16T14:43:01.806Z,11.04
2018-02-16T14:44:16.439Z,11.08
2018-02-16T14:45:31.566Z,11.17
2018-02-16T14:46:45.968Z,11.26
2018-02-16T14:48:00.413Z,11.34
2018-02-16T14:49:14.787Z,11.43
2018-02-16T14:50:28.928Z,11.58
2018-02-16T14:51:42.709Z,11.7
2018-02-16T14:52:57.560Z,11.8
2018-02-16T14:54:12.520Z,11.88
2018-02-16T14:55:26.897Z,11.9
2018-02-16T14:56:41.540Z,11.94
2018-02-16T14:57:56.230Z,11.93
2018-02-16T14:59:11.040Z,11.9
2018-02-16T15:00:25.854Z,11.85
2018-02-16T15:01:39.779Z,11.76
2018-02-16T15:02:54.305Z,11.66
2018-02-16T15:04:08.408Z,11.58
2018-02-16T15:05:22.742Z,11.48
2018-02-16T15:06:37.376Z,11.38
2018-02-16T15:07:51.708Z,11.3
2018-02-16T15:09:06.290Z,11.24
2018-02-16T15:10:20.848Z,11.19
2018-02-16T15:11:35.237Z,11.16
2018-02-16T15:12:49.826Z,11.11
2018-02-16T15:14:04.502Z,11.11
2018-02-16T15:15:19.168Z,11.09
2018-02-16T15:16:34.123Z,11.06
2018-02-16T15:17:48.473Z,11.07
2018-02-16T15:19:02.740Z,11.04
2018-02-16T15:20:18.008Z,10.95
2018-02-16T15:21:32.130Z,10.83
2018-02-16T15:22:47.097Z,10.7
2018-02-16T15:24:01.620Z,10.58
2018-02-16T15:25:16.560Z,10.51
2018-02-16T15:28:00.479Z,10.3
2018-02-16T15:29:14.717Z,10.15
2018-02-16T15:30:29.422Z,9.98
2018-02-16T15:31:44.185Z,9.85
2018-02-16T15:32:59.047Z,9.67
2018-02-16T15:34:13.735Z,9.55
2018-02-16T15:35:28.704Z,9.36
2018-02-16T15:36:42.778Z,9.24
2018-02-16T15:37:57.375Z,9.15
2018-02-16T15:39:10.633Z,9.07
2018-02-16T15:40:25.539Z,9.01
2018-02-16T15:41:39.760Z,8.9
2018-02-16T15:42:54.100Z,8.84
2018-02-16T15:44:08.396Z,8.77
2018-02-16T15:45:23.013Z,8.68
2018-02-16T15:46:37.327Z,8.65
2018-02-16T15:47:51.876Z,8.58
2018-02-16T15:49:06.904Z,8.51
2018-02-16T15:50:21.361Z,8.47
2018-02-16T15:51:35.865Z,8.41
2018-02-16T15:52:50.322Z,8.3
2018-02-16T15:54:04.584Z,8.25
2018-02-16T15:55:18.734Z,8.2
2018-02-16T15:56:33.150Z,8.2
2018-02-16T15:57:47.692Z,8.16
2018-02-16T15:59:02.214Z,8.15
2018-02-16T16:00:16.061Z,8.15
2018-02-16T16:01:30.789Z,8.15
2018-02-16T16:02:44.836Z,8.17
2018-02-16T16:03:59.165Z,8.19
2018-02-16T16:05:13.337Z,8.15
2018-02-16T16:06:29.747Z,8.14
2018-02-16T16:07:55.830Z,8.14
2018-02-16T16:09:23.469Z,8.14
2018-02-16T16:10:49.471Z,8.1
2018-02-16T16:12:03.123Z,8.08
2018-02-16T16:13:17.206Z,8.08
2018-02-16T16:14:31.504Z,8.1
2018-02-16T16:15:46.111Z,8.08
2018-02-16T16:17:00.983Z,8.14
2018-02-16T16:18:15.736Z,8.17
2018-02-16T16:19:29.840Z,8.14
2018-02-16T16:20:43.974Z,8.15
2018-02-16T16:21:58.726Z,8.14
2018-02-16T16:23:12.984Z,8.11
2018-02-16T16:24:26.860Z,8.09
2018-02-16T16:25:41.054Z,8.06
2018-02-16T16:26:55.953Z,8.03
2018-02-16T16:28:10.634Z,7.99
2018-02-16T16:29:25.392Z,7.96
2018-02-16T16:33:07.904Z,7.9
2018-02-16T16:34:25.326Z,7.86
2018-02-16T16:35:40.610Z,7.85
2018-02-16T16:36:55.404Z,7.84
2018-02-16T16:38:10.208Z,7.86
2018-02-16T16:39:25.149Z,7.88
2018-02-16T16:40:39.660Z,7.88
2018-02-16T16:41:54.658Z,7.88
2018-02-16T16:43:09.255Z,7.91